sensor_id;sensor_type;location;lat;lon;timestamp;P1;durP1;ratioP1;P2;durP2;ratioP2
9940;SDS011;5009;50.656;7.188;2023-08-17T04:00:53;35.92;;;32.17;;
9940;SDS011;5009;50.656;7.188;2023-08-17T04:03:19;32.33;;;29.27;;
9940;SDS011;5009;50.656;7.188;2023-08-17T04:05:45;34.05;;;30.65;;
9940;SDS011;5009;50.656;7.188;2023-08-17T04:08:11;34.20;;;30.75;;
9940;SDS011;5009;50.656;7.188;2023-08-17T04:10:37;35.63;;;30.17;;
9940;SDS011;5009;50.656;7.188;2023-08-17T04:13:03;37.10;;;32.15;;
9940;SDS011;5009;50.656;7.188;2023-08-17T04:15:29;34.25;;;30.88;;
9940;SDS011;5009;50.656;7.188;2023-08-17T04:17:55;35.05;;;31.65;;
9940;SDS011;5009;50.656;7.188;2023-08-17T04:20:20;32.50;;;29.17;;
9940;SDS011;5009;50.656;7.188;2023-08-17T04:22:47;32.88;;;29.60;;
9940;SDS011;5009;50.656;7.188;2023-08-17T04:25:13;34.83;;;30.45;;
9940;SDS011;5009;50.656;7.188;2023-08-17T04:27:38;34.88;;;31.30;;
9940;SDS011;5009;50.656;7.188;2023-08-17T04:30:04;32.10;;;28.88;;
9940;SDS011;5009;50.656;7.188;2023-08-17T04:32:30;34.55;;;31.13;;
9940;SDS011;5009;50.656;7.188;2023-08-17T04:34:56;32.95;;;29.58;;
9940;SDS011;5009;50.656;7.188;2023-08-17T04:37:22;33.17;;;29.90;;
9940;SDS011;5009;50.656;7.188;2023-08-17T04:39:48;34.15;;;30.42;;
9940;SDS011;5009;50.656;7.188;2023-08-17T04:42:14;34.15;;;30.60;;
9940;SDS011;5009;50.656;7.188;2023-08-17T04:44:39;32.60;;;29.10;;
9940;SDS011;5009;50.656;7.188;2023-08-17T04:47:05;32.17;;;28.95;;
9940;SDS011;5009;50.656;7.188;2023-08-17T04:49:31;30.88;;;27.70;;
9940;SDS011;5009;50.656;7.188;2023-08-17T04:51:56;31.75;;;28.30;;
9940;SDS011;5009;50.656;7.188;2023-08-17T04:54:22;30.63;;;27.30;;
9940;SDS011;5009;50.656;7.188;2023-08-17T04:56:48;31.00;;;27.92;;
9940;SDS011;5009;50.656;7.188;2023-08-17T04:59:13;34.35;;;30.75;;
9940;SDS011;5009;50.656;7.188;2023-08-17T05:01:39;30.77;;;27.52;;
9940;SDS011;5009;50.656;7.188;2023-08-17T05:04:05;32.47;;;29.13;;
9940;SDS011;5009;50.656;7.188;2023-08-17T05:06:32;32.00;;;28.58;;
9940;SDS011;5009;50.656;7.188;2023-08-17T05:08:58;31.75;;;28.40;;
9940;SDS011;5009;50.656;7.188;2023-08-17T05:11:23;35.78;;;29.15;;
9940;SDS011;5009;50.656;7.188;2023-08-17T05:13:49;32.47;;;29.08;;
9940;SDS011;5009;50.656;7.188;2023-08-17T05:16:15;33.67;;;27.85;;
9940;SDS011;5009;50.656;7.188;2023-08-17T05:18:40;32.30;;;28.67;;
9940;SDS011;5009;50.656;7.188;2023-08-17T05:21:06;31.38;;;27.98;;
9940;SDS011;5009;50.656;7.188;2023-08-17T05:23:32;35.25;;;29.63;;
9940;SDS011;5009;50.656;7.188;2023-08-17T05:25:57;32.67;;;28.17;;
9940;SDS011;5009;50.656;7.188;2023-08-17T05:28:23;34.42;;;28.67;;
9940;SDS011;5009;50.656;7.188;2023-08-17T05:30:49;31.23;;;27.77;;
9940;SDS011;5009;50.656;7.188;2023-08-17T05:33:15;33.33;;;27.98;;
9940;SDS011;5009;50.656;7.188;2023-08-17T05:35:41;31.83;;;27.50;;
9940;SDS011;5009;50.656;7.188;2023-08-17T05:38:07;32.17;;;28.48;;
9940;SDS011;5009;50.656;7.188;2023-08-17T05:40:33;34.53;;;28.65;;
9940;SDS011;5009;50.656;7.188;2023-08-17T05:42:59;36.28;;;29.58;;
9940;SDS011;5009;50.656;7.188;2023-08-17T05:45:24;34.80;;;28.58;;
9940;SDS011;5009;50.656;7.188;2023-08-17T05:47:51;35.58;;;29.05;;
9940;SDS011;5009;50.656;7.188;2023-08-17T05:50:17;39.50;;;30.90;;
9940;SDS011;5009;50.656;7.188;2023-08-17T05:52:42;38.42;;;29.02;;
9940;SDS011;5009;50.656;7.188;2023-08-17T05:55:08;37.75;;;29.13;;
9940;SDS011;5009;50.656;7.188;2023-08-17T05:57:33;38.33;;;28.70;;
9940;SDS011;5009;50.656;7.188;2023-08-17T05:59:59;37.40;;;27.17;;
9940;SDS011;5009;50.656;7.188;2023-08-17T06:02:25;35.10;;;26.95;;
9940;SDS011;5009;50.656;7.188;2023-08-17T06:04:50;26.52;;;23.13;;
9940;SDS011;5009;50.656;7.188;2023-08-17T06:07:16;26.48;;;20.98;;
9940;SDS011;5009;50.656;7.188;2023-08-17T06:09:41;22.13;;;19.17;;
9940;SDS011;5009;50.656;7.188;2023-08-17T06:12:07;21.45;;;17.35;;
9940;SDS011;5009;50.656;7.188;2023-08-17T06:14:33;16.92;;;15.27;;
9940;SDS011;5009;50.656;7.188;2023-08-17T06:16:59;15.23;;;13.73;;
9940;SDS011;5009;50.656;7.188;2023-08-17T06:19:25;13.65;;;12.38;;
9940;SDS011;5009;50.656;7.188;2023-08-17T06:21:50;11.82;;;10.82;;
9940;SDS011;5009;50.656;7.188;2023-08-17T06:24:17;11.05;;;10.02;;
9940;SDS011;5009;50.656;7.188;2023-08-17T06:26:43;10.07;;;9.00;;
9940;SDS011;5009;50.656;7.188;2023-08-17T06:29:09;9.95;;;8.93;;
9940;SDS011;5009;50.656;7.188;2023-08-17T06:31:34;9.82;;;8.85;;
9940;SDS011;5009;50.656;7.188;2023-08-17T06:34:00;10.05;;;9.00;;
9940;SDS011;5009;50.656;7.188;2023-08-17T06:36:29;9.70;;;8.60;;
9940;SDS011;5009;50.656;7.188;2023-08-17T06:38:56;8.60;;;7.80;;
9940;SDS011;5009;50.656;7.188;2023-08-17T06:41:21;9.07;;;8.23;;
9940;SDS011;5009;50.656;7.188;2023-08-17T06:43:47;10.27;;;8.57;;
9940;SDS011;5009;50.656;7.188;2023-08-17T06:46:12;8.95;;;8.10;;
9940;SDS011;5009;50.656;7.188;2023-08-17T06:48:38;9.38;;;8.57;;
9940;SDS011;5009;50.656;7.188;2023-08-17T06:51:03;14.50;;;9.40;;
9940;SDS011;5009;50.656;7.188;2023-08-17T06:53:30;10.88;;;8.95;;
9940;SDS011;5009;50.656;7.188;2023-08-17T06:55:55;10.77;;;8.25;;
9940;SDS011;5009;50.656;7.188;2023-08-17T06:58:21;10.43;;;9.57;;
9940;SDS011;5009;50.656;7.188;2023-08-17T07:00:47;14.43;;;12.82;;
9940;SDS011;5009;50.656;7.188;2023-08-17T07:03:12;18.13;;;14.73;;
9940;SDS011;5009;50.656;7.188;2023-08-17T07:05:38;15.70;;;14.20;;
9940;SDS011;5009;50.656;7.188;2023-08-17T07:08:03;15.95;;;14.52;;
9940;SDS011;5009;50.656;7.188;2023-08-17T07:10:29;16.30;;;14.18;;
9940;SDS011;5009;50.656;7.188;2023-08-17T07:12:55;14.00;;;12.65;;
9940;SDS011;5009;50.656;7.188;2023-08-17T07:15:21;14.38;;;12.93;;
9940;SDS011;5009;50.656;7.188;2023-08-17T07:17:46;14.20;;;12.52;;
9940;SDS011;5009;50.656;7.188;2023-08-17T07:20:12;13.50;;;12.10;;
9940;SDS011;5009;50.656;7.188;2023-08-17T07:22:37;14.13;;;12.68;;
9940;SDS011;5009;50.656;7.188;2023-08-17T07:25:03;13.93;;;12.57;;
9940;SDS011;5009;50.656;7.188;2023-08-17T07:27:29;14.10;;;12.70;;
9940;SDS011;5009;50.656;7.188;2023-08-17T07:29:55;11.57;;;10.48;;
9940;SDS011;5009;50.656;7.188;2023-08-17T07:32:20;12.20;;;11.10;;
9940;SDS011;5009;50.656;7.188;2023-08-17T07:34:47;10.98;;;9.88;;
9940;SDS011;5009;50.656;7.188;2023-08-17T07:37:12;11.05;;;10.05;;
9940;SDS011;5009;50.656;7.188;2023-08-17T07:39:38;11.32;;;10.13;;
9940;SDS011;5009;50.656;7.188;2023-08-17T07:42:04;11.40;;;10.30;;
9940;SDS011;5009;50.656;7.188;2023-08-17T07:44:29;10.57;;;9.20;;
9940;SDS011;5009;50.656;7.188;2023-08-17T07:46:56;13.13;;;11.77;;
9940;SDS011;5009;50.656;7.188;2023-08-17T07:49:22;15.10;;;13.00;;
9940;SDS011;5009;50.656;7.188;2023-08-17T07:51:49;18.15;;;13.30;;
9940;SDS011;5009;50.656;7.188;2023-08-17T07:54:15;15.10;;;13.30;;
9940;SDS011;5009;50.656;7.188;2023-08-17T07:56:40;17.15;;;13.95;;
9940;SDS011;5009;50.656;7.188;2023-08-17T07:59:06;19.88;;;16.17;;
9940;SDS011;5009;50.656;7.188;2023-08-17T08:01:32;20.50;;;15.77;;
9940;SDS011;5009;50.656;7.188;2023-08-17T08:03:57;23.67;;;17.00;;
9940;SDS011;5009;50.656;7.188;2023-08-17T08:06:23;20.48;;;17.27;;
9940;SDS011;5009;50.656;7.188;2023-08-17T08:08:48;20.90;;;18.45;;
9940;SDS011;5009;50.656;7.188;2023-08-17T08:11:14;22.52;;;20.13;;
9940;SDS011;5009;50.656;7.188;2023-08-17T08:13:40;22.83;;;19.67;;
9940;SDS011;5009;50.656;7.188;2023-08-17T08:16:05;24.85;;;19.75;;
9940;SDS011;5009;50.656;7.188;2023-08-17T08:18:31;28.00;;;21.08;;
9940;SDS011;5009;50.656;7.188;2023-08-17T08:20:56;23.30;;;20.33;;
9940;SDS011;5009;50.656;7.188;2023-08-17T08:23:22;23.15;;;18.70;;
9940;SDS011;5009;50.656;7.188;2023-08-17T08:25:47;20.30;;;18.15;;
9940;SDS011;5009;50.656;7.188;2023-08-17T08:28:13;22.35;;;19.05;;
9940;SDS011;5009;50.656;7.188;2023-08-17T08:30:38;24.23;;;18.90;;
9940;SDS011;5009;50.656;7.188;2023-08-17T08:33:04;24.67;;;19.88;;
9940;SDS011;5009;50.656;7.188;2023-08-17T08:35:29;31.48;;;23.67;;
9940;SDS011;5009;50.656;7.188;2023-08-17T08:37:55;28.83;;;23.00;;
9940;SDS011;5009;50.656;7.188;2023-08-17T08:40:27;27.55;;;23.52;;
9940;SDS011;5009;50.656;7.188;2023-08-17T08:42:55;23.27;;;20.85;;
9940;SDS011;5009;50.656;7.188;2023-08-17T08:45:24;24.23;;;21.35;;
9940;SDS011;5009;50.656;7.188;2023-08-17T08:47:52;24.40;;;21.80;;
9940;SDS011;5009;50.656;7.188;2023-08-17T08:50:20;23.48;;;20.98;;
9940;SDS011;5009;50.656;7.188;2023-08-17T08:52:58;25.35;;;22.10;;
9940;SDS011;5009;50.656;7.188;2023-08-17T08:55:26;23.67;;;21.27;;
9940;SDS011;5009;50.656;7.188;2023-08-17T08:57:54;27.00;;;21.45;;
9940;SDS011;5009;50.656;7.188;2023-08-17T09:00:21;22.38;;;20.08;;
9940;SDS011;5009;50.656;7.188;2023-08-17T09:02:48;20.60;;;18.50;;
9940;SDS011;5009;50.656;7.188;2023-08-17T09:05:14;21.55;;;19.00;;
9940;SDS011;5009;50.656;7.188;2023-08-17T09:07:40;20.65;;;18.55;;
9940;SDS011;5009;50.656;7.188;2023-08-17T09:10:08;19.48;;;17.48;;
9940;SDS011;5009;50.656;7.188;2023-08-17T09:12:34;18.17;;;16.27;;
9940;SDS011;5009;50.656;7.188;2023-08-17T09:15:00;18.48;;;16.73;;
9940;SDS011;5009;50.656;7.188;2023-08-17T09:17:26;19.15;;;17.30;;
9940;SDS011;5009;50.656;7.188;2023-08-17T09:19:52;18.02;;;16.20;;
9940;SDS011;5009;50.656;7.188;2023-08-17T09:22:26;21.08;;;19.00;;
9940;SDS011;5009;50.656;7.188;2023-08-17T09:25:01;22.45;;;19.52;;
9940;SDS011;5009;50.656;7.188;2023-08-17T09:27:27;23.17;;;18.90;;
9940;SDS011;5009;50.656;7.188;2023-08-17T09:29:52;21.98;;;19.75;;
9940;SDS011;5009;50.656;7.188;2023-08-17T09:32:28;18.85;;;16.95;;
9940;SDS011;5009;50.656;7.188;2023-08-17T09:34:55;18.13;;;16.05;;
9940;SDS011;5009;50.656;7.188;2023-08-17T09:37:21;19.13;;;17.25;;
9940;SDS011;5009;50.656;7.188;2023-08-17T09:39:46;17.73;;;15.90;;
9940;SDS011;5009;50.656;7.188;2023-08-17T09:42:12;18.52;;;16.75;;
9940;SDS011;5009;50.656;7.188;2023-08-17T09:44:41;17.73;;;15.82;;
9940;SDS011;5009;50.656;7.188;2023-08-17T09:47:07;16.83;;;15.18;;
9940;SDS011;5009;50.656;7.188;2023-08-17T09:49:32;16.08;;;14.57;;
9940;SDS011;5009;50.656;7.188;2023-08-17T09:52:01;14.93;;;13.60;;
9940;SDS011;5009;50.656;7.188;2023-08-17T09:54:27;16.70;;;14.82;;
9940;SDS011;5009;50.656;7.188;2023-08-17T09:56:55;16.45;;;14.85;;
9940;SDS011;5009;50.656;7.188;2023-08-17T09:59:22;16.95;;;15.18;;
9940;SDS011;5009;50.656;7.188;2023-08-17T10:01:49;15.85;;;14.25;;
9940;SDS011;5009;50.656;7.188;2023-08-17T10:04:22;15.43;;;13.93;;
9940;SDS011;5009;50.656;7.188;2023-08-17T10:06:51;15.25;;;13.70;;
9940;SDS011;5009;50.656;7.188;2023-08-17T10:09:23;13.27;;;12.15;;
9940;SDS011;5009;50.656;7.188;2023-08-17T10:11:51;11.80;;;10.65;;
9940;SDS011;5009;50.656;7.188;2023-08-17T10:14:21;12.35;;;11.25;;
9940;SDS011;5009;50.656;7.188;2023-08-17T10:16:53;11.07;;;10.18;;
9940;SDS011;5009;50.656;7.188;2023-08-17T10:19:25;12.77;;;11.65;;
9940;SDS011;5009;50.656;7.188;2023-08-17T10:22:03;11.73;;;10.63;;
9940;SDS011;5009;50.656;7.188;2023-08-17T10:24:35;11.52;;;10.52;;
9940;SDS011;5009;50.656;7.188;2023-08-17T10:27:03;12.30;;;11.15;;
9940;SDS011;5009;50.656;7.188;2023-08-17T10:29:30;11.63;;;10.43;;
9940;SDS011;5009;50.656;7.188;2023-08-17T10:31:56;13.00;;;11.82;;
9940;SDS011;5009;50.656;7.188;2023-08-17T10:34:24;12.13;;;11.10;;
9940;SDS011;5009;50.656;7.188;2023-08-17T10:36:51;13.38;;;12.10;;
9940;SDS011;5009;50.656;7.188;2023-08-17T10:39:17;12.93;;;11.52;;
9940;SDS011;5009;50.656;7.188;2023-08-17T10:41:51;13.05;;;11.57;;
9940;SDS011;5009;50.656;7.188;2023-08-17T10:44:17;14.85;;;13.07;;
9940;SDS011;5009;50.656;7.188;2023-08-17T10:47:24;14.35;;;12.32;;
9940;SDS011;5009;50.656;7.188;2023-08-17T10:52:33;12.68;;;11.48;;
9940;SDS011;5009;50.656;7.188;2023-08-17T10:55:02;10.60;;;9.70;;
9940;SDS011;5009;50.656;7.188;2023-08-17T10:57:38;9.73;;;8.75;;
9940;SDS011;5009;50.656;7.188;2023-08-17T11:02:35;8.75;;;7.90;;
9940;SDS011;5009;50.656;7.188;2023-08-17T11:05:02;8.82;;;7.93;;
9940;SDS011;5009;50.656;7.188;2023-08-17T11:07:38;9.45;;;8.50;;
9940;SDS011;5009;50.656;7.188;2023-08-17T11:10:11;10.00;;;9.10;;
9940;SDS011;5009;50.656;7.188;2023-08-17T11:12:37;9.48;;;8.27;;
9940;SDS011;5009;50.656;7.188;2023-08-17T11:15:05;8.77;;;8.07;;
9940;SDS011;5009;50.656;7.188;2023-08-17T11:17:31;10.20;;;9.30;;
9940;SDS011;5009;50.656;7.188;2023-08-17T11:19:57;8.70;;;7.90;;
9940;SDS011;5009;50.656;7.188;2023-08-17T11:22:22;8.80;;;7.97;;
9940;SDS011;5009;50.656;7.188;2023-08-17T11:24:48;8.10;;;7.30;;
9940;SDS011;5009;50.656;7.188;2023-08-17T11:27:14;7.57;;;6.88;;
9940;SDS011;5009;50.656;7.188;2023-08-17T11:29:40;9.90;;;7.70;;
9940;SDS011;5009;50.656;7.188;2023-08-17T11:32:05;8.02;;;7.25;;
9940;SDS011;5009;50.656;7.188;2023-08-17T11:34:31;7.82;;;7.10;;
9940;SDS011;5009;50.656;7.188;2023-08-17T11:36:57;7.65;;;6.95;;
9940;SDS011;5009;50.656;7.188;2023-08-17T11:39:22;7.00;;;6.30;;
9940;SDS011;5009;50.656;7.188;2023-08-17T11:41:48;7.22;;;5.80;;
9940;SDS011;5009;50.656;7.188;2023-08-17T11:44:14;7.18;;;5.85;;
9940;SDS011;5009;50.656;7.188;2023-08-17T11:46:40;6.00;;;5.50;;
9940;SDS011;5009;50.656;7.188;2023-08-17T11:49:06;5.50;;;5.03;;
9940;SDS011;5009;50.656;7.188;2023-08-17T11:51:31;6.13;;;5.53;;
9940;SDS011;5009;50.656;7.188;2023-08-17T11:54:00;6.40;;;5.80;;
9940;SDS011;5009;50.656;7.188;2023-08-17T11:56:28;5.75;;;5.35;;
9940;SDS011;5009;50.656;7.188;2023-08-17T11:58:53;6.63;;;5.85;;
9940;SDS011;5009;50.656;7.188;2023-08-17T12:01:19;6.40;;;5.90;;
9940;SDS011;5009;50.656;7.188;2023-08-17T12:03:45;6.90;;;6.30;;
9940;SDS011;5009;50.656;7.188;2023-08-17T12:06:15;9.07;;;7.40;;
9940;SDS011;5009;50.656;7.188;2023-08-17T12:08:45;9.55;;;8.73;;
9940;SDS011;5009;50.656;7.188;2023-08-17T12:11:12;9.20;;;8.30;;
9940;SDS011;5009;50.656;7.188;2023-08-17T12:13:37;9.80;;;9.00;;
9940;SDS011;5009;50.656;7.188;2023-08-17T12:16:03;11.75;;;10.43;;
9940;SDS011;5009;50.656;7.188;2023-08-17T12:18:31;10.07;;;9.18;;
9940;SDS011;5009;50.656;7.188;2023-08-17T12:20:58;9.52;;;8.63;;
9940;SDS011;5009;50.656;7.188;2023-08-17T12:23:23;9.65;;;8.82;;
9940;SDS011;5009;50.656;7.188;2023-08-17T12:25:53;8.93;;;8.20;;
9940;SDS011;5009;50.656;7.188;2023-08-17T12:28:19;8.60;;;7.88;;
9940;SDS011;5009;50.656;7.188;2023-08-17T12:30:45;8.60;;;7.90;;
9940;SDS011;5009;50.656;7.188;2023-08-17T12:33:11;9.55;;;8.73;;
9940;SDS011;5009;50.656;7.188;2023-08-17T12:35:36;10.45;;;9.45;;
9940;SDS011;5009;50.656;7.188;2023-08-17T12:38:02;10.55;;;9.60;;
9940;SDS011;5009;50.656;7.188;2023-08-17T12:40:27;9.60;;;8.70;;
9940;SDS011;5009;50.656;7.188;2023-08-17T12:42:53;11.35;;;10.30;;
9940;SDS011;5009;50.656;7.188;2023-08-17T12:45:18;10.05;;;9.25;;
9940;SDS011;5009;50.656;7.188;2023-08-17T12:47:44;9.90;;;9.10;;
9940;SDS011;5009;50.656;7.188;2023-08-17T12:50:10;9.75;;;8.82;;
9940;SDS011;5009;50.656;7.188;2023-08-17T12:52:35;9.70;;;8.90;;
9940;SDS011;5009;50.656;7.188;2023-08-17T12:55:01;9.13;;;8.43;;
9940;SDS011;5009;50.656;7.188;2023-08-17T12:57:27;9.13;;;8.43;;
9940;SDS011;5009;50.656;7.188;2023-08-17T12:59:52;9.82;;;8.93;;
9940;SDS011;5009;50.656;7.188;2023-08-17T13:02:19;11.25;;;10.30;;
9940;SDS011;5009;50.656;7.188;2023-08-17T13:04:45;11.63;;;10.65;;
9940;SDS011;5009;50.656;7.188;2023-08-17T13:07:11;11.48;;;10.57;;
9940;SDS011;5009;50.656;7.188;2023-08-17T13:09:36;12.00;;;11.02;;
9940;SDS011;5009;50.656;7.188;2023-08-17T13:12:02;11.43;;;10.52;;
9940;SDS011;5009;50.656;7.188;2023-08-17T13:14:28;11.98;;;10.98;;
9940;SDS011;5009;50.656;7.188;2023-08-17T13:16:54;12.25;;;11.25;;
9940;SDS011;5009;50.656;7.188;2023-08-17T13:19:19;12.38;;;11.38;;
9940;SDS011;5009;50.656;7.188;2023-08-17T13:21:45;11.35;;;10.45;;
9940;SDS011;5009;50.656;7.188;2023-08-17T13:24:11;14.43;;;13.07;;
9940;SDS011;5009;50.656;7.188;2023-08-17T13:26:38;13.88;;;12.73;;
9940;SDS011;5009;50.656;7.188;2023-08-17T13:29:04;14.48;;;13.07;;
9940;SDS011;5009;50.656;7.188;2023-08-17T13:31:30;13.10;;;12.00;;
9940;SDS011;5009;50.656;7.188;2023-08-17T13:33:55;14.15;;;12.80;;
9940;SDS011;5009;50.656;7.188;2023-08-17T13:36:21;13.07;;;11.80;;
9940;SDS011;5009;50.656;7.188;2023-08-17T13:38:46;12.18;;;11.07;;
9940;SDS011;5009;50.656;7.188;2023-08-17T13:41:12;12.15;;;11.05;;
9940;SDS011;5009;50.656;7.188;2023-08-17T13:43:38;11.05;;;10.13;;
9940;SDS011;5009;50.656;7.188;2023-08-17T13:46:04;11.43;;;10.52;;
9940;SDS011;5009;50.656;7.188;2023-08-17T13:48:29;13.25;;;12.15;;
9940;SDS011;5009;50.656;7.188;2023-08-17T13:50:55;14.38;;;11.27;;
9940;SDS011;5009;50.656;7.188;2023-08-17T13:53:21;11.32;;;10.35;;
9940;SDS011;5009;50.656;7.188;2023-08-17T13:56:04;11.60;;;10.45;;
9940;SDS011;5009;50.656;7.188;2023-08-17T13:58:30;14.50;;;11.90;;
9940;SDS011;5009;50.656;7.188;2023-08-17T14:00:55;15.68;;;14.27;;
9940;SDS011;5009;50.656;7.188;2023-08-17T14:03:21;17.10;;;15.50;;
9940;SDS011;5009;50.656;7.188;2023-08-17T14:05:47;17.08;;;15.50;;
9940;SDS011;5009;50.656;7.188;2023-08-17T14:08:13;17.10;;;15.60;;
9940;SDS011;5009;50.656;7.188;2023-08-17T14:10:38;18.10;;;16.25;;
9940;SDS011;5009;50.656;7.188;2023-08-17T14:13:04;17.38;;;15.80;;
9940;SDS011;5009;50.656;7.188;2023-08-17T14:15:29;16.42;;;14.93;;
9940;SDS011;5009;50.656;7.188;2023-08-17T14:17:55;16.45;;;14.40;;
9940;SDS011;5009;50.656;7.188;2023-08-17T14:20:21;17.13;;;15.40;;
9940;SDS011;5009;50.656;7.188;2023-08-17T14:22:46;15.68;;;14.25;;
9940;SDS011;5009;50.656;7.188;2023-08-17T14:25:12;16.00;;;14.50;;
9940;SDS011;5009;50.656;7.188;2023-08-17T14:27:38;14.65;;;13.32;;
9940;SDS011;5009;50.656;7.188;2023-08-17T14:30:03;11.18;;;10.13;;
9940;SDS011;5009;50.656;7.188;2023-08-17T14:32:29;10.73;;;9.65;;
9940;SDS011;5009;50.656;7.188;2023-08-17T14:34:55;10.48;;;9.43;;
9940;SDS011;5009;50.656;7.188;2023-08-17T14:37:21;10.10;;;9.10;;
9940;SDS011;5009;50.656;7.188;2023-08-17T14:39:46;9.80;;;8.90;;
9940;SDS011;5009;50.656;7.188;2023-08-17T14:42:12;9.00;;;8.18;;
9940;SDS011;5009;50.656;7.188;2023-08-17T14:44:37;8.68;;;7.97;;
9940;SDS011;5009;50.656;7.188;2023-08-17T14:47:03;8.65;;;7.95;;
9940;SDS011;5009;50.656;7.188;2023-08-17T14:49:29;9.18;;;8.38;;
9940;SDS011;5009;50.656;7.188;2023-08-17T14:51:54;8.77;;;8.07;;
9940;SDS011;5009;50.656;7.188;2023-08-17T14:54:20;8.65;;;7.90;;
9940;SDS011;5009;50.656;7.188;2023-08-17T14:56:46;8.80;;;7.97;;
9940;SDS011;5009;50.656;7.188;2023-08-17T14:59:11;10.65;;;8.70;;
9940;SDS011;5009;50.656;7.188;2023-08-17T15:01:37;8.95;;;8.25;;
9940;SDS011;5009;50.656;7.188;2023-08-17T15:04:02;9.48;;;8.68;;
9940;SDS011;5009;50.656;7.188;2023-08-17T15:06:28;10.82;;;9.85;;
9940;SDS011;5009;50.656;7.188;2023-08-17T15:08:53;9.30;;;8.48;;
9940;SDS011;5009;50.656;7.188;2023-08-17T15:11:19;8.60;;;7.90;;
9940;SDS011;5009;50.656;7.188;2023-08-17T15:13:45;9.57;;;7.93;;
9940;SDS011;5009;50.656;7.188;2023-08-17T15:16:10;7.63;;;6.72;;
9940;SDS011;5009;50.656;7.188;2023-08-17T15:18:37;7.15;;;6.55;;
9940;SDS011;5009;50.656;7.188;2023-08-17T15:21:03;6.68;;;6.07;;
9940;SDS011;5009;50.656;7.188;2023-08-17T15:23:29;7.10;;;6.50;;
9940;SDS011;5009;50.656;7.188;2023-08-17T15:25:55;6.72;;;6.13;;
9940;SDS011;5009;50.656;7.188;2023-08-17T15:28:21;6.88;;;6.10;;
9940;SDS011;5009;50.656;7.188;2023-08-17T15:30:49;7.15;;;6.53;;
9940;SDS011;5009;50.656;7.188;2023-08-17T15:33:26;7.53;;;6.78;;
9940;SDS011;5009;50.656;7.188;2023-08-17T15:35:51;7.78;;;7.05;;
9940;SDS011;5009;50.656;7.188;2023-08-17T15:38:17;7.72;;;6.97;;
9940;SDS011;5009;50.656;7.188;2023-08-17T15:40:42;7.60;;;6.95;;
9940;SDS011;5009;50.656;7.188;2023-08-17T15:43:08;8.05;;;7.25;;
9940;SDS011;5009;50.656;7.188;2023-08-17T15:45:33;7.25;;;6.55;;
9940;SDS011;5009;50.656;7.188;2023-08-17T15:47:59;7.00;;;6.25;;
9940;SDS011;5009;50.656;7.188;2023-08-17T15:50:25;7.30;;;6.68;;
9940;SDS011;5009;50.656;7.188;2023-08-17T15:52:50;7.60;;;6.72;;
9940;SDS011;5009;50.656;7.188;2023-08-17T15:55:16;6.85;;;6.28;;
9940;SDS011;5009;50.656;7.188;2023-08-17T15:57:41;7.45;;;6.75;;
9940;SDS011;5009;50.656;7.188;2023-08-17T16:00:07;7.50;;;6.90;;
9940;SDS011;5009;50.656;7.188;2023-08-17T16:02:33;6.78;;;6.28;;
9940;SDS011;5009;50.656;7.188;2023-08-17T16:04:58;7.45;;;6.55;;
9940;SDS011;5009;50.656;7.188;2023-08-17T16:07:24;7.53;;;7.03;;
9940;SDS011;5009;50.656;7.188;2023-08-17T16:09:49;7.18;;;6.47;;
9940;SDS011;5009;50.656;7.188;2023-08-17T16:12:15;7.47;;;6.78;;
9940;SDS011;5009;50.656;7.188;2023-08-17T16:14:40;6.65;;;6.07;;
9940;SDS011;5009;50.656;7.188;2023-08-17T16:17:06;6.55;;;5.82;;
9940;SDS011;5009;50.656;7.188;2023-08-17T16:19:31;7.68;;;6.88;;
9940;SDS011;5009;50.656;7.188;2023-08-17T16:21:57;6.43;;;5.68;;
9940;SDS011;5009;50.656;7.188;2023-08-17T16:24:23;6.88;;;6.28;;
9940;SDS011;5009;50.656;7.188;2023-08-17T16:26:48;6.45;;;5.90;;
9940;SDS011;5009;50.656;7.188;2023-08-17T16:29:14;6.90;;;6.20;;
9940;SDS011;5009;50.656;7.188;2023-08-17T16:31:39;7.75;;;7.13;;
9940;SDS011;5009;50.656;7.188;2023-08-17T16:34:06;8.63;;;7.90;;
9940;SDS011;5009;50.656;7.188;2023-08-17T16:36:32;9.20;;;8.30;;
9940;SDS011;5009;50.656;7.188;2023-08-17T16:38:57;9.23;;;8.13;;
9940;SDS011;5009;50.656;7.188;2023-08-17T16:41:23;8.15;;;7.28;;
9940;SDS011;5009;50.656;7.188;2023-08-17T16:43:49;11.50;;;9.93;;
9940;SDS011;5009;50.656;7.188;2023-08-17T16:46:17;8.32;;;7.53;;
9940;SDS011;5009;50.656;7.188;2023-08-17T16:48:43;9.32;;;7.07;;
9940;SDS011;5009;50.656;7.188;2023-08-17T16:51:09;8.68;;;6.88;;
9940;SDS011;5009;50.656;7.188;2023-08-17T16:53:34;7.03;;;6.40;;
9940;SDS011;5009;50.656;7.188;2023-08-17T16:56:00;6.43;;;5.80;;
9940;SDS011;5009;50.656;7.188;2023-08-17T16:58:26;7.65;;;6.35;;
9940;SDS011;5009;50.656;7.188;2023-08-17T17:00:51;7.75;;;6.70;;
9940;SDS011;5009;50.656;7.188;2023-08-17T17:03:17;7.10;;;6.53;;
9940;SDS011;5009;50.656;7.188;2023-08-17T17:05:42;6.53;;;5.97;;
9940;SDS011;5009;50.656;7.188;2023-08-17T17:08:08;6.40;;;5.90;;
9940;SDS011;5009;50.656;7.188;2023-08-17T17:10:34;6.03;;;5.40;;
9940;SDS011;5009;50.656;7.188;2023-08-17T17:13:00;6.47;;;5.57;;
9940;SDS011;5009;50.656;7.188;2023-08-17T17:15:25;6.68;;;6.00;;
9940;SDS011;5009;50.656;7.188;2023-08-17T17:17:51;6.10;;;5.60;;
9940;SDS011;5009;50.656;7.188;2023-08-17T17:20:16;6.35;;;5.75;;
9940;SDS011;5009;50.656;7.188;2023-08-17T17:22:42;5.90;;;5.40;;
9940;SDS011;5009;50.656;7.188;2023-08-17T17:25:08;5.65;;;5.20;;
9940;SDS011;5009;50.656;7.188;2023-08-17T17:27:33;5.93;;;5.47;;
9940;SDS011;5009;50.656;7.188;2023-08-17T17:29:59;6.47;;;5.97;;
9940;SDS011;5009;50.656;7.188;2023-08-17T17:32:24;6.47;;;5.97;;
9940;SDS011;5009;50.656;7.188;2023-08-17T17:34:50;6.10;;;5.50;;
9940;SDS011;5009;50.656;7.188;2023-08-17T17:37:15;6.43;;;5.82;;
9940;SDS011;5009;50.656;7.188;2023-08-17T17:39:42;13.10;;;8.82;;
9940;SDS011;5009;50.656;7.188;2023-08-17T17:42:08;7.30;;;6.60;;
9940;SDS011;5009;50.656;7.188;2023-08-17T17:44:33;7.75;;;6.88;;
9940;SDS011;5009;50.656;7.188;2023-08-17T17:46:59;12.63;;;8.93;;
9940;SDS011;5009;50.656;7.188;2023-08-17T17:49:24;10.48;;;7.72;;
9940;SDS011;5009;50.656;7.188;2023-08-17T17:51:50;7.20;;;6.50;;
9940;SDS011;5009;50.656;7.188;2023-08-17T17:54:15;8.43;;;7.28;;
9940;SDS011;5009;50.656;7.188;2023-08-17T17:56:42;7.43;;;6.72;;
9940;SDS011;5009;50.656;7.188;2023-08-17T17:59:08;8.25;;;7.45;;
9940;SDS011;5009;50.656;7.188;2023-08-17T18:01:34;7.65;;;6.97;;
9940;SDS011;5009;50.656;7.188;2023-08-17T18:04:00;8.60;;;7.68;;
9940;SDS011;5009;50.656;7.188;2023-08-17T18:06:26;12.15;;;9.02;;
9940;SDS011;5009;50.656;7.188;2023-08-17T18:08:52;7.75;;;6.85;;
9940;SDS011;5009;50.656;7.188;2023-08-17T18:11:18;7.35;;;6.72;;
9940;SDS011;5009;50.656;7.188;2023-08-17T18:13:43;7.07;;;6.38;;
9940;SDS011;5009;50.656;7.188;2023-08-17T18:16:09;7.15;;;6.55;;
9940;SDS011;5009;50.656;7.188;2023-08-17T18:18:34;7.38;;;6.70;;
9940;SDS011;5009;50.656;7.188;2023-08-17T18:21:06;6.95;;;6.30;;
9940;SDS011;5009;50.656;7.188;2023-08-17T18:23:34;7.78;;;6.80;;
9940;SDS011;5009;50.656;7.188;2023-08-17T18:26:00;8.20;;;6.32;;
9940;SDS011;5009;50.656;7.188;2023-08-17T18:28:27;7.60;;;6.88;;
9940;SDS011;5009;50.656;7.188;2023-08-17T18:30:52;8.07;;;7.28;;
9940;SDS011;5009;50.656;7.188;2023-08-17T18:33:18;8.10;;;7.30;;
9940;SDS011;5009;50.656;7.188;2023-08-17T18:35:44;8.73;;;7.65;;
9940;SDS011;5009;50.656;7.188;2023-08-17T18:38:09;8.25;;;7.22;;
9940;SDS011;5009;50.656;7.188;2023-08-17T18:40:37;8.02;;;7.22;;
9940;SDS011;5009;50.656;7.188;2023-08-17T18:43:03;7.05;;;6.45;;
9940;SDS011;5009;50.656;7.188;2023-08-17T18:45:29;7.38;;;6.68;;
9940;SDS011;5009;50.656;7.188;2023-08-17T18:47:54;7.95;;;7.25;;
9940;SDS011;5009;50.656;7.188;2023-08-17T18:50:20;8.05;;;7.32;;
9940;SDS011;5009;50.656;7.188;2023-08-17T18:52:45;7.38;;;6.65;;
9940;SDS011;5009;50.656;7.188;2023-08-17T18:55:11;9.00;;;7.40;;
9940;SDS011;5009;50.656;7.188;2023-08-17T18:57:37;7.88;;;7.25;;
9940;SDS011;5009;50.656;7.188;2023-08-17T19:00:04;8.05;;;7.35;;